Time;durP1;ratioP1;P1;durP2;ratioP2;P2;SDS_P1;SDS_P2;PMS_P1;PMS_P2;Temp;Humidity;BMP_temperature;BMP_pressure;BME280_temperature;BME280_humidity;BME280_pressure;Samples;Min_cycle;Max_cycle;Signal;HPM_P1;HPM_P2
2024/01/02 00:03:42;;;;;;;19.30;10.15;;;;;;;3.78;100.00;100068.66;10459071;28;20073;-85
2024/01/02 00:08:42;;;;;;;29.98;13.13;;;;;;;3.83;100.00;100057.06;10454733;28;20041;-85
2024/01/02 00:13:43;;;;;;;21.23;10.13;;;;;;;3.88;100.00;100040.03;10457257;28;20037;-87
2024/01/02 00:18:44;;;;;;;18.33;9.55;;;;;;;3.92;100.00;100030.34;10441468;28;20099;-86
2024/01/02 00:23:45;;;;;;;20.25;10.63;;;;;;;3.99;100.00;100025.63;10458266;28;20033;-86
2024/01/02 00:28:46;;;;;;;18.35;7.70;;;;;;;4.06;100.00;100025.53;10458696;28;20049;-86
2024/01/02 00:33:46;;;;;;;13.43;7.00;;;;;;;4.14;100.00;100011.59;10457484;28;20046;-89
2024/01/02 00:38:47;;;;;;;11.77;5.80;;;;;;;4.22;100.00;100000.34;10440570;28;20037;-86
2024/01/02 00:43:47;;;;;;;11.38;5.07;;;;;;;4.27;100.00;99995.03;10439527;28;20052;-78
2024/01/02 00:48:48;;;;;;;18.63;6.13;;;;;;;4.10;100.00;99940.41;10440049;28;20056;-84
2024/01/02 00:53:48;;;;;;;10.02;5.68;;;;;;;4.42;100.00;99975.50;10457315;28;20419;-85
2024/01/02 00:58:49;;;;;;;12.23;4.65;;;;;;;4.52;100.00;99969.47;10453401;28;20539;-85
2024/01/02 01:03:49;;;;;;;21.83;6.43;;;;;;;4.58;100.00;99971.25;10457769;28;20496;-86
2024/01/02 01:08:50;;;;;;;10.82;4.22;;;;;;;4.59;100.00;99948.38;10458073;28;20400;-87
2024/01/02 01:13:50;;;;;;;8.73;4.20;;;;;;;4.61;100.00;99930.72;10436613;28;20045;-86
2024/01/02 01:18:51;;;;;;;13.07;5.85;;;;;;;4.65;100.00;99920.97;10421878;28;20048;-86
2024/01/02 01:23:51;;;;;;;5.18;3.70;;;;;;;4.53;100.00;99884.72;10457271;28;20029;-83
2024/01/02 01:28:52;;;;;;;8.88;4.68;;;;;;;4.67;100.00;99889.91;10451109;28;20053;-87
2024/01/02 01:33:52;;;;;;;10.48;4.80;;;;;;;4.71;100.00;99891.91;10455251;28;20579;-88
2024/01/02 01:38:53;;;;;;;10.13;5.20;;;;;;;4.72;100.00;99871.78;10419738;28;20029;-86
2024/01/02 01:43:53;;;;;;;9.68;4.93;;;;;;;4.67;100.00;99857.19;10421621;28;20037;-86
2024/01/02 01:48:54;;;;;;;9.77;5.15;;;;;;;4.14;100.00;99772.69;10437858;28;20033;-85
2024/01/02 01:53:54;;;;;;;11.80;5.57;;;;;;;4.61;100.00;99820.81;10471543;28;20457;-84
2024/01/02 01:58:55;;;;;;;9.65;6.80;;;;;;;4.55;100.00;99795.38;10422383;28;20505;-84
2024/01/02 02:03:56;;;;;;;14.98;6.72;;;;;;;4.68;100.00;99793.44;10432765;28;20099;-82
2024/01/02 02:08:57;;;;;;;11.65;8.52;;;;;;;4.64;100.00;99765.81;10437520;28;20050;-86
2024/01/02 02:13:57;;;;;;;19.13;8.45;;;;;;;4.68;100.00;99760.72;10454614;28;20041;-85
2024/01/02 02:18:58;;;;;;;15.73;8.45;;;;;;;4.79;100.00;99760.66;10437361;28;20052;-86
2024/01/02 02:23:58;;;;;;;21.08;9.32;;;;;;;4.85;100.00;99734.31;10438935;28;20123;-89
2024/01/02 02:28:59;;;;;;;14.65;8.95;;;;;;;4.87;100.00;99715.81;10456116;28;20519;-88
2024/01/02 02:33:59;;;;;;;16.63;9.57;;;;;;;4.85;100.00;99698.88;10462999;28;20455;-88
2024/01/02 02:39:00;;;;;;;19.02;9.25;;;;;;;4.93;100.00;99687.56;10462916;28;20041;-86
2024/01/02 02:44:00;;;;;;;13.85;9.93;;;;;;;4.97;100.00;99658.72;10427524;28;20063;-89
2024/01/02 02:49:00;;;;;;;18.40;10.60;;;;;;;4.95;100.00;99641.75;10462795;28;20052;-87
2024/01/02 02:54:01;;;;;;;19.50;10.77;;;;;;;4.92;100.00;99612.28;10429807;28;20037;-88
2024/01/02 02:59:02;;;;;;;23.73;11.48;;;;;;;4.92;100.00;99604.09;10464798;28;20056;-88
2024/01/02 03:04:03;;;;;;;18.20;11.50;;;;;;;4.99;100.00;99598.47;10461832;28;20065;-88
2024/01/02 03:09:06;;;;;;;20.90;11.07;;;;;;;4.90;100.00;99565.34;10450679;28;20060;-88
2024/01/02 03:14:07;;;;;;;19.40;11.70;;;;;;;4.89;100.00;99543.75;10441006;28;20060;-84
2024/01/02 03:19:07;;;;;;;23.27;12.18;;;;;;;4.90;100.00;99524.44;10461759;28;20126;-88
2024/01/02 03:24:08;;;;;;;24.65;12.75;;;;;;;4.96;100.00;99512.50;10478204;28;20071;-86
2024/01/02 03:29:08;;;;;;;27.70;13.68;;;;;;;4.92;100.00;99500.47;10451970;28;20722;-88
2024/01/02 03:34:09;;;;;;;18.10;12.05;;;;;;;4.99;100.00;99490.19;10460181;28;20037;-85
2024/01/02 03:39:09;;;;;;;21.98;12.35;;;;;;;5.00;100.00;99477.34;10457041;28;20407;-86
2024/01/02 03:44:10;;;;;;;21.27;12.27;;;;;;;5.03;100.00;99469.50;10456480;28;20041;-85
2024/01/02 03:49:10;;;;;;;22.13;11.55;;;;;;;5.08;100.00;99446.91;10460802;28;20114;-86
2024/01/02 03:54:11;;;;;;;15.82;12.90;;;;;;;5.10;100.00;99425.66;10443818;28;20041;-85
2024/01/02 03:59:11;;;;;;;19.20;11.82;;;;;;;5.14;100.00;99398.72;10477412;28;20048;-87
2024/01/02 04:04:12;;;;;;;15.75;11.70;;;;;;;5.12;100.00;99389.97;10476516;28;20041;-87
2024/01/02 04:09:12;;;;;;;17.75;10.75;;;;;;;5.07;100.00;99357.19;10442870;28;20033;-85
2024/01/02 04:14:13;;;;;;;18.73;11.10;;;;;;;5.05;100.00;99333.69;10460009;28;20298;-85
2024/01/02 04:19:13;;;;;;;13.82;10.95;;;;;;;5.09;100.00;99314.91;10476397;28;20527;-85
2024/01/02 04:24:14;;;;;;;19.08;11.45;;;;;;;5.03;100.00;99283.22;10460333;28;20037;-86
2024/01/02 04:29:16;;;;;;;13.57;10.65;;;;;;;5.02;100.00;99257.00;10464771;28;20033;-85
2024/01/02 04:34:17;;;;;;;13.70;10.23;;;;;;;5.00;100.00;99251.81;10447391;28;20051;-83
2024/01/02 04:39:17;;;;;;;14.23;10.25;;;;;;;5.10;100.00;99256.53;10461658;28;20044;-82
2024/01/02 04:44:18;;;;;;;10.85;9.25;;;;;;;5.01;100.00;99237.09;10460142;28;20056;-87
2024/01/02 04:49:18;;;;;;;13.90;9.43;;;;;;;5.08;100.00;99228.69;10460604;28;20037;-84
2024/01/02 04:54:19;;;;;;;14.13;9.48;;;;;;;5.16;100.00;99225.50;10459251;28;20449;-84
2024/01/02 04:59:19;;;;;;;17.10;9.55;;;;;;;4.99;100.00;99202.97;10459916;28;20056;-85
2024/01/02 05:04:20;;;;;;;15.68;8.98;;;;;;;5.14;100.00;99213.19;10459724;28;20037;-87
2024/01/02 05:09:20;;;;;;;9.82;8.80;;;;;;;5.10;100.00;99184.78;10440530;28;20052;-85
2024/01/02 05:14:21;;;;;;;13.68;9.27;;;;;;;5.12;100.00;99166.25;10440822;28;20029;-82
2024/01/02 05:19:21;;;;;;;9.32;8.25;;;;;;;5.14;100.00;99166.81;10456824;28;20033;-83
2024/01/02 05:24:21;;;;;;;14.98;8.70;;;;;;;5.07;100.00;99128.88;10458805;28;20041;-80
2024/01/02 05:29:22;;;;;;;12.15;8.30;;;;;;;5.09;100.00;99129.44;10459032;28;20567;-81
2024/01/02 05:34:22;;;;;;;13.95;7.38;;;;;;;5.12;100.00;99106.25;10457517;28;20059;-80
2024/01/02 05:39:23;;;;;;;14.00;7.97;;;;;;;5.13;100.00;99088.81;10440391;28;20064;-80
2024/01/02 05:44:23;;;;;;;8.30;7.57;;;;;;;5.11;100.00;99083.63;10455516;28;20037;-79
2024/01/02 05:49:24;;;;;;;10.63;8.20;;;;;;;5.17;100.00;99093.47;10455144;28;20048;-80
2024/01/02 05:54:24;;;;;;;7.63;6.85;;;;;;;5.14;100.00;99072.16;10458853;28;20051;-79
2024/01/02 05:59:25;;;;;;;10.27;8.00;;;;;;;5.17;100.00;99062.66;10458741;28;20033;-78
2024/01/02 06:04:25;;;;;;;8.88;7.35;;;;;;;5.18;100.00;99064.28;10460118;28;20041;-78
2024/01/02 06:09:26;;;;;;;11.05;7.68;;;;;;;5.20;100.00;99049.28;10480933;28;20052;-79
2024/01/02 06:14:26;;;;;;;8.70;7.40;;;;;;;5.20;100.00;99049.28;10465716;28;20049;-78
2024/01/02 06:19:27;;;;;;;7.47;6.97;;;;;;;5.21;100.00;99034.56;10466633;28;20029;-77
2024/01/02 06:24:27;;;;;;;7.70;7.05;;;;;;;5.17;100.00;98995.28;10448065;28;20053;-78
2024/01/02 06:29:28;;;;;;;9.07;7.80;;;;;;;5.12;100.00;98981.59;10463921;28;20041;-77
2024/01/02 06:34:28;;;;;;;8.23;7.63;;;;;;;5.20;100.00;98983.00;10463378;28;20029;-77
2024/01/02 06:39:28;;;;;;;8.25;7.55;;;;;;;5.17;100.00;98986.28;10463070;28;20417;-77
2024/01/02 06:44:29;;;;;;;7.60;7.10;;;;;;;5.08;100.00;98976.94;10463741;28;20501;-78
2024/01/02 06:49:29;;;;;;;7.82;7.25;;;;;;;5.20;100.00;98980.28;10463405;28;20033;-77
2024/01/02 06:54:30;;;;;;;8.80;8.10;;;;;;;5.19;100.00;98968.53;10464834;28;20041;-78
2024/01/02 06:59:30;;;;;;;9.18;8.27;;;;;;;5.18;100.00;98957.88;10464173;28;20053;-77
2024/01/02 07:04:31;;;;;;;8.35;7.65;;;;;;;5.08;100.00;98946.94;10463348;28;20033;-79
2024/01/02 07:09:31;;;;;;;8.18;7.53;;;;;;;5.22;100.00;98959.00;10477694;28;20049;-77
2024/01/02 07:14:33;;;;;;;8.20;7.70;;;;;;;5.24;100.00;98949.47;10463933;28;20036;-78
2024/01/02 07:19:34;;;;;;;8.15;7.60;;;;;;;5.25;100.00;98942.13;10463312;28;20041;-79
2024/01/02 07:24:34;;;;;;;7.93;7.43;;;;;;;5.18;100.00;98938.78;10463947;28;20473;-79
2024/01/02 07:29:35;;;;;;;8.10;7.50;;;;;;;5.25;100.00;98936.66;10478420;28;20044;-78
2024/01/02 07:34:35;;;;;;;8.25;7.65;;;;;;;5.16;100.00;98917.22;10478301;28;20033;-78
2024/01/02 07:39:35;;;;;;;7.90;7.50;;;;;;;5.32;100.00;98937.22;10461883;28;20049;-78
2024/01/02 07:44:36;;;;;;;8.30;7.70;;;;;;;5.31;100.00;98924.66;10453992;28;20041;-77
2024/01/02 07:49:36;;;;;;;8.32;7.72;;;;;;;5.32;100.00;98937.22;10461950;28;20033;-74
2024/01/02 07:54:38;;;;;;;8.77;8.27;;;;;;;5.38;100.00;98927.97;10461348;28;22506;-77
2024/01/02 07:59:39;;;;;;;8.73;8.10;;;;;;;5.37;100.00;98934.50;10460503;28;20052;-77
2024/01/02 08:04:39;;;;;;;8.57;8.07;;;;;;;5.41;100.00;98929.31;10459353;28;20048;-77
2024/01/02 08:09:40;;;;;;;8.48;7.97;;;;;;;5.47;100.00;98925.53;10458754;28;20133;-77
2024/01/02 08:14:41;;;;;;;9.82;8.90;;;;;;;5.49;100.00;98917.06;10461810;28;20056;-78
2024/01/02 08:19:41;;;;;;;9.88;9.07;;;;;;;5.49;100.00;98911.63;10460263;28;20041;-77
2024/01/02 08:24:42;;;;;;;10.20;9.40;;;;;;;5.36;100.00;98891.94;10475941;28;20048;-77
2024/01/02 08:29:42;;;;;;;9.43;8.73;;;;;;;5.62;100.00;98913.81;10474835;28;20041;-77
2024/01/02 08:34:43;;;;;;;10.25;9.50;;;;;;;5.66;100.00;98910.31;10459688;28;20437;-77
2024/01/02 08:39:43;;;;;;;10.75;9.95;;;;;;;5.74;100.00;98922.59;10458996;28;20044;-75
2024/01/02 08:44:44;;;;;;;10.35;9.55;;;;;;;5.50;100.00;98873.16;10459186;28;20045;-77
2024/01/02 08:49:45;;;;;;;10.50;9.70;;;;;;;5.86;100.00;98916.88;10459580;28;20033;-78
2024/01/02 08:54:46;;;;;;;11.40;10.40;;;;;;;5.92;100.00;98918.53;10459215;28;20045;-77
2024/01/02 08:59:46;;;;;;;14.77;10.63;;;;;;;5.99;100.00;98929.19;10459737;28;20045;-77
2024/01/02 09:04:47;;;;;;;11.80;10.70;;;;;;;5.99;100.00;98924.56;10456247;28;20029;-77
2024/01/02 09:09:48;;;;;;;13.52;12.23;;;;;;;6.15;100.00;98921.84;10473485;28;20100;-78
2024/01/02 09:14:49;;;;;;;12.25;11.18;;;;;;;6.26;100.00;98918.00;10457654;28;20041;-77
2024/01/02 09:19:49;;;;;;;15.95;13.65;;;;;;;6.36;100.00;98912.53;10457734;28;20049;-77
2024/01/02 09:24:50;;;;;;;22.25;14.00;;;;;;;6.52;100.00;98916.06;10457646;28;20511;-78
2024/01/02 09:29:50;;;;;;;17.10;14.35;;;;;;;6.72;100.00;98908.91;10455708;28;20568;-78
2024/01/02 09:34:51;;;;;;;23.20;14.75;;;;;;;6.91;100.00;98904.50;10449344;28;20029;-79
2024/01/02 09:39:53;;;;;;;30.13;16.38;;;;;;;6.96;100.00;98907.22;10437265;28;20053;-79
2024/01/02 09:45:16;;;;;;;21.35;14.45;;;;;;;7.11;100.00;98925.50;10459036;28;20052;-79
2024/01/02 09:50:25;;;;;;;20.90;14.73;;;;;;;7.21;100.00;98919.16;10454916;28;20409;-80
2024/01/02 09:55:26;;;;;;;22.70;14.98;;;;;;;7.35;100.00;98925.69;10468874;28;20090;-79
2024/01/02 10:01:05;;;;;;;26.65;14.75;;;;;;;7.52;100.00;98927.25;10456253;28;20173;-79
2024/01/02 10:06:14;;;;;;;39.03;15.68;;;;;;;7.73;100.00;98925.19;10454837;28;20048;-80
2024/01/02 10:11:15;;;;;;;37.63;15.48;;;;;;;7.89;100.00;98921.25;10456089;28;20432;-78
2024/01/02 10:16:32;;;;;;;39.95;16.48;;;;;;;8.05;100.00;98924.72;10455210;28;20044;-80
2024/01/02 10:21:44;;;;;;;;;;;;;;;8.18;100.00;98928.72;10451971;28;20044;-76
2024/01/02 10:27:18;;;;;;;25.70;13.55;;;;;;;8.32;100.00;98926.16;10452891;28;19920;-77
2024/01/02 10:32:47;;;;;;;33.03;14.20;;;;;;;8.47;100.00;98942.50;10455218;28;20436;-78
2024/01/02 10:38:10;;;;;;;32.80;15.63;;;;;;;8.62;100.00;98936.88;10450072;28;20045;-77
2024/01/02 10:43:30;;;;;;;30.63;15.57;;;;;;;8.68;100.00;98921.19;10435735;28;20083;-78
2024/01/02 10:48:33;;;;;;;33.42;14.90;;;;;;;8.77;100.00;98930.44;10436779;28;20037;-79
2024/01/02 10:53:56;;;;;;;24.20;14.98;;;;;;;8.86;100.00;98925.13;10460863;28;20049;-79
2024/01/02 10:59:05;;;;;;;34.58;17.40;;;;;;;8.95;100.00;98931.63;10461560;28;20048;-73
2024/01/02 11:04:18;;;;;;;27.88;15.15;;;;;;;9.03;100.00;98930.13;10461744;28;20041;-79
2024/01/02 11:09:29;;;;;;;33.42;16.10;;;;;;;9.05;100.00;98926.00;10460544;28;20040;-79
2024/01/02 11:14:29;;;;;;;36.40;16.83;;;;;;;9.12;100.00;98909.19;10474517;28;20045;-79
2024/01/02 11:19:57;;;;;;;24.15;15.10;;;;;;;9.24;100.00;98912.34;10461039;28;20041;-78
2024/01/02 11:25:00;;;;;;;;;;;;;;;9.26;100.00;98895.53;10460594;28;20391;-79
2024/01/02 11:30:02;;;;;;;20.90;13.27;;;;;;;9.29;100.00;98892.22;10462405;28;19920;-79
2024/01/02 11:35:05;;;;;;;26.27;14.38;;;;;;;9.40;100.00;98893.72;10459268;28;20069;-79
2024/01/02 11:40:35;;;;;;;36.38;14.20;;;;;;;9.53;100.00;98885.84;10456817;28;20523;-78
2024/01/02 11:45:37;;;;;;;26.08;11.82;;;;;;;9.50;100.00;98876.28;10462531;28;20045;-79
2024/01/02 11:50:59;;;;;;;25.08;11.38;;;;;;;9.54;100.00;98876.53;10451074;28;20052;-80
2024/01/02 11:56:09;;;;;;;28.05;13.02;;;;;;;9.72;100.00;98894.13;10443793;28;20041;-79
2024/01/02 12:01:17;;;;;;;24.17;12.55;;;;;;;9.65;100.00;98888.97;10460667;28;20041;-79
2024/01/02 12:06:45;;;;;;;17.95;12.85;;;;;;;9.69;100.00;98890.03;10457204;28;20090;-79
2024/01/02 12:12:29;;;;;;;28.77;14.13;;;;;;;9.67;100.00;98884.00;10456628;28;20063;-79
2024/01/02 12:17:37;;;;;;;28.50;15.10;;;;;;;9.59;100.00;98871.78;10384542;28;20128;-79
2024/01/02 12:22:38;;;;;;;21.30;13.70;;;;;;;9.56;100.00;98879.78;10456552;28;20079;-79
2024/01/02 12:27:38;;;;;;;27.55;16.63;;;;;;;9.47;100.00;98850.22;10457221;28;20446;-79
2024/01/02 12:33:19;;;;;;;28.83;17.08;;;;;;;9.59;100.00;98862.69;10473491;28;20048;-79
2024/01/02 12:38:23;;;;;;;25.10;16.33;;;;;;;9.37;100.00;98833.91;10450498;28;20478;-79
2024/01/02 12:43:25;;;;;;;32.08;16.98;;;;;;;9.53;100.00;98847.41;10458479;28;20116;-79
2024/01/02 12:48:25;;;;;;;33.83;19.85;;;;;;;9.57;100.00;98857.53;10475278;28;20048;-80
2024/01/02 12:53:29;;;;;;;35.35;19.17;;;;;;;9.40;100.00;98830.53;10457156;28;20059;-79
2024/01/02 12:58:31;;;;;;;36.17;19.73;;;;;;;9.42;100.00;98820.06;10448650;28;20120;-80
2024/01/02 13:03:31;;;;;;;27.90;18.27;;;;;;;9.46;100.00;98826.59;10470608;28;20623;-80
2024/01/02 13:08:32;;;;;;;46.83;19.73;;;;;;;9.41;100.00;98806.66;10440063;28;20032;-79
2024/01/02 13:13:32;;;;;;;38.90;21.02;;;;;;;9.34;100.00;98798.78;10437229;28;20033;-80
2024/01/02 13:18:33;;;;;;;42.85;21.52;;;;;;;9.29;100.00;98782.38;10454832;28;20041;-80
2024/01/02 13:23:33;;;;;;;43.03;20.48;;;;;;;9.14;100.00;98741.44;10457191;28;20040;-80
2024/01/02 13:28:34;;;;;;;30.15;19.27;;;;;;;9.21;100.00;98755.59;10457163;28;20041;-80
2024/01/02 13:33:39;;;;;;;40.15;20.48;;;;;;;9.18;100.00;98739.75;10457775;28;20090;-80
2024/01/02 13:38:46;;;;;;;36.28;19.13;;;;;;;9.23;100.00;98742.38;10455648;28;20132;-80
2024/01/02 13:43:49;;;;;;;41.05;22.45;;;;;;;9.20;100.00;98741.06;10469508;28;20040;-80
2024/01/02 13:48:51;;;;;;;36.35;20.40;;;;;;;9.23;100.00;98736.91;10455721;28;20063;-82
2024/01/02 13:54:02;;;;;;;36.88;20.80;;;;;;;9.13;100.00;98712.34;10472700;28;20029;-85
2024/01/02 13:59:07;;;;;;;31.83;18.77;;;;;;;9.13;100.00;98715.09;10440081;28;20168;-84
2024/01/02 14:04:10;;;;;;;34.13;19.85;;;;;;;9.09;100.00;98701.97;10454158;28;20045;-83
2024/01/02 14:09:14;;;;;;;33.45;20.00;;;;;;;9.03;100.00;98681.22;10446313;28;20087;-86
2024/01/02 14:14:15;;;;;;;44.35;20.33;;;;;;;8.99;100.00;98682.91;10455894;28;20059;-86
2024/01/02 14:19:15;;;;;;;46.28;20.38;;;;;;;8.94;100.00;98677.47;10454489;28;20040;-87
2024/01/02 14:24:19;;;;;;;46.55;21.60;;;;;;;8.82;100.00;98645.00;10438382;28;20459;-84
2024/01/02 14:29:23;;;;;;;51.78;22.52;;;;;;;8.90;100.00;98659.97;10459023;28;20052;-83
2024/01/02 14:34:51;;;;;;;46.25;22.75;;;;;;;8.93;100.00;98653.91;10441557;28;20039;-84
2024/01/02 14:40:06;;;;;;;55.75;22.15;;;;;;;8.88;100.00;98641.06;10454024;28;20075;-83
2024/01/02 14:45:17;;;;;;;61.78;22.73;;;;;;;8.92;100.00;98645.97;10437705;28;20037;-83
2024/01/02 14:50:49;;;;;;;40.03;21.40;;;;;;;8.92;100.00;98646.78;10421742;28;20051;-83
2024/01/02 14:56:08;;;;;;;42.38;20.35;;;;;;;8.98;100.00;98644.78;10447895;28;20065;-83
2024/01/02 15:01:09;;;;;;;51.33;23.10;;;;;;;8.87;100.00;98623.00;10443455;28;20568;-81
2024/01/02 15:06:15;;;;;;;66.03;26.40;;;;;;;8.94;100.00;98619.84;10431909;28;20063;-81
2024/01/02 15:11:25;;;;;;;47.70;22.92;;;;;;;8.99;100.00;98606.06;10432971;28;20040;-79
2024/01/02 15:16:48;;;;;;;45.13;22.05;;;;;;;9.00;100.00;98585.72;10458876;28;20044;-78
2024/01/02 15:21:59;;;;;;;50.28;21.85;;;;;;;8.97;100.00;98561.66;10461568;28;20044;-78
2024/01/02 15:27:06;;;;;;;49.92;21.67;;;;;;;8.95;100.00;98544.66;10457201;28;20120;-78
2024/01/02 15:32:16;;;;;;;33.38;19.30;;;;;;;9.01;100.00;98539.88;10451483;28;20063;-78
2024/01/02 15:37:27;;;;;;;49.15;21.98;;;;;;;8.87;100.00;98524.19;10475810;28;20033;-78
2024/01/02 15:42:32;;;;;;;42.67;18.75;;;;;;;8.91;100.00;98513.44;10458794;28;20121;-78
2024/01/02 15:47:53;;;;;;;33.65;18.35;;;;;;;8.90;100.00;98503.56;10441330;28;20041;-78
2024/01/02 15:53:12;;;;;;;30.55;18.20;;;;;;;8.91;100.00;98491.50;10459198;28;20041;-78
2024/01/02 15:58:20;;;;;;;24.05;18.67;;;;;;;8.82;100.00;98465.84;10458893;28;20056;-78
2024/01/02 16:03:40;;;;;;;27.48;17.35;;;;;;;8.92;100.00;98471.16;10462315;28;20389;-78
2024/01/02 16:08:40;;;;;;;24.45;16.80;;;;;;;8.91;100.00;98441.28;10460522;28;20123;-78
2024/01/02 16:13:59;;;;;;;21.30;17.98;;;;;;;8.96;100.00;98441.19;10460215;28;20570;-78
2024/01/02 16:19:14;;;;;;;23.95;17.30;;;;;;;8.85;100.00;98393.94;10474854;28;20446;-78
2024/01/02 16:24:48;;;;;;;19.15;16.63;;;;;;;8.90;100.00;98382.84;10457939;28;20092;-79
2024/01/02 16:29:58;;;;;;;17.60;15.90;;;;;;;8.92;100.00;98371.56;10459094;28;21380;-78
2024/01/02 16:35:14;;;;;;;19.95;17.35;;;;;;;8.88;100.00;98354.91;10457321;28;20429;-79
2024/01/02 16:40:42;;;;;;;20.15;18.00;;;;;;;8.86;100.00;98341.47;10437484;28;20041;-79
2024/01/02 16:45:46;;;;;;;18.92;17.23;;;;;;;8.82;100.00;98301.25;10459974;28;20037;-76
2024/01/02 16:50:56;;;;;;;17.45;15.77;;;;;;;8.79;100.00;98299.13;10440769;28;20052;-77
2024/01/02 16:55:56;;;;;;;16.13;14.82;;;;;;;8.74;100.00;98280.81;10456654;28;20049;-77
2024/01/02 17:00:58;;;;;;;15.90;14.52;;;;;;;8.40;100.00;98207.97;10437622;28;20468;-77
2024/01/02 17:06:02;;;;;;;17.27;15.68;;;;;;;8.74;100.00;98250.63;10454722;28;20128;-77
2024/01/02 17:11:03;;;;;;;16.20;14.80;;;;;;;8.65;100.00;98225.88;10437482;28;20045;-77
2024/01/02 17:16:04;;;;;;;15.55;14.05;;;;;;;8.64;100.00;98213.28;10439557;28;20037;-76
2024/01/02 17:21:04;;;;;;;16.60;15.10;;;;;;;8.58;100.00;98186.25;10439699;28;20428;-77
2024/01/02 17:26:06;;;;;;;16.17;14.77;;;;;;;8.64;100.00;98185.03;10423640;28;20045;-76
2024/01/02 17:31:11;;;;;;;17.20;15.60;;;;;;;8.59;100.00;98161.28;10422142;28;20045;-76
2024/01/02 17:36:12;;;;;;;17.38;15.98;;;;;;;8.54;100.00;98131.22;10425100;28;20439;-76
2024/01/02 17:41:12;;;;;;;17.95;16.25;;;;;;;8.62;100.00;98126.94;10451883;28;20052;-76
2024/01/02 17:46:13;;;;;;;18.65;16.48;;;;;;;8.66;100.00;98112.31;10439928;28;20033;-76
2024/01/02 17:51:16;;;;;;;18.38;16.52;;;;;;;8.60;100.00;98091.59;10449189;28;20092;-76
2024/01/02 17:56:17;;;;;;;18.98;17.05;;;;;;;8.69;100.00;98084.25;10456383;28;20041;-78
2024/01/02 18:01:22;;;;;;;20.00;18.05;;;;;;;8.59;100.00;98061.75;10458625;28;20055;-78
2024/01/02 18:06:29;;;;;;;22.27;19.98;;;;;;;8.72;100.00;98060.06;10464619;28;20052;-77
2024/01/02 18:11:30;;;;;;;23.23;18.85;;;;;;;8.69;100.00;98037.63;10466352;28;20040;-78
2024/01/02 18:16:34;;;;;;;21.38;18.58;;;;;;;8.75;100.00;98046.53;10463944;28;20041;-78
2024/01/02 18:21:48;;;;;;;23.75;20.02;;;;;;;8.78;100.00;98012.19;10459097;28;20053;-77
2024/01/02 18:26:54;;;;;;;22.88;19.00;;;;;;;8.29;100.00;97922.31;10465237;28;20049;-76
2024/01/02 18:31:58;;;;;;;24.33;19.60;;;;;;;8.82;100.00;97983.00;10479279;28;20049;-77
2024/01/02 18:37:09;;;;;;;19.33;17.48;;;;;;;8.82;100.00;97961.88;10480153;28;20053;-76
2024/01/02 18:42:42;;;;;;;19.75;17.85;;;;;;;8.85;100.00;97954.97;10463289;28;20053;-77
2024/01/02 18:47:57;;;;;;;18.02;16.13;;;;;;;8.87;100.00;97939.00;10462635;28;20072;-78
2024/01/02 18:53:57;;;;;;;18.00;16.30;;;;;;;8.91;100.00;97937.25;10461647;28;20053;-78
2024/01/02 18:58:58;;;;;;;17.83;16.13;;;;;;;8.88;100.00;97913.16;10392456;28;20041;-77
2024/01/02 19:04:11;;;;;;;16.02;14.55;;;;;;;8.97;100.00;97919.53;10461309;28;20045;-78
2024/01/02 19:09:14;;;;;;;15.00;13.85;;;;;;;8.91;100.00;97887.84;10477457;28;20060;-78
2024/01/02 19:14:14;;;;;;;15.38;14.15;;;;;;;9.02;100.00;97882.88;10461229;28;20036;-77
2024/01/02 19:19:15;;;;;;;15.65;14.57;;;;;;;9.02;100.00;97875.47;10461864;28;20036;-79
2024/01/02 19:24:16;;;;;;;15.93;14.82;;;;;;;9.02;100.00;97861.75;10459894;28;20041;-79
2024/01/02 19:29:17;;;;;;;14.57;13.68;;;;;;;9.06;100.00;97845.47;10441602;28;20149;-79
2024/01/02 19:34:18;;;;;;;14.43;13.43;;;;;;;9.11;100.00;97841.75;10477120;28;20370;-79
2024/01/02 19:39:20;;;;;;;14.38;13.38;;;;;;;9.11;100.00;97847.25;10476421;28;20029;-80
2024/01/02 19:44:23;;;;;;;16.13;14.80;;;;;;;9.25;100.00;97842.44;10450165;28;20064;-80
2024/01/02 19:49:24;;;;;;;15.32;13.75;;;;;;;9.37;100.00;97870.06;10476238;28;20048;-78
2024/01/02 19:54:25;;;;;;;13.05;11.88;;;;;;;9.35;100.00;97842.13;10457299;28;20037;-80
2024/01/02 19:59:25;;;;;;;13.57;12.63;;;;;;;9.49;100.00;97853.78;10461417;28;20561;-79
2024/01/02 20:04:27;;;;;;;15.25;13.65;;;;;;;9.53;100.00;97864.09;10475793;28;20037;-80
2024/01/02 20:09:27;;;;;;;12.90;10.98;;;;;;;9.56;100.00;97866.22;10458579;28;20037;-79
2024/01/02 20:14:34;;;;;;;11.93;9.10;;;;;;;9.58;100.00;97874.94;10459253;28;20554;-84
2024/01/02 20:19:34;;;;;;;13.70;10.13;;;;;;;9.55;100.00;97857.19;10451809;28;20055;-80
2024/01/02 20:24:36;;;;;;;10.60;8.70;;;;;;;9.60;100.00;97864.47;10454103;28;20052;-80
2024/01/02 20:29:54;;;;;;;10.07;6.75;;;;;;;9.67;100.00;97871.09;10457565;28;20075;-79
2024/01/02 20:34:55;;;;;;;10.15;5.32;;;;;;;9.74;100.00;97876.09;10469115;28;20571;-82
2024/01/02 20:39:58;;;;;;;6.05;4.00;;;;;;;9.87;100.00;97877.06;10457464;28;20037;-82
2024/01/02 20:45:00;;;;;;;14.07;5.35;;;;;;;9.98;100.00;97880.31;10425066;28;20052;-80
2024/01/02 20:50:00;;;;;;;8.27;4.68;;;;;;;9.93;100.00;97900.50;10474707;28;20056;-86
2024/01/02 20:55:01;;;;;;;7.85;3.53;;;;;;;9.85;100.00;97869.16;10473010;28;20068;-84
2024/01/02 21:00:02;;;;;;;9.85;4.50;;;;;;;9.85;100.00;97899.38;10441173;28;20045;-81
2024/01/02 21:05:03;;;;;;;11.25;5.10;;;;;;;9.76;100.00;97895.81;10423712;28;20052;-86
2024/01/02 21:10:24;;;;;;;12.98;7.72;;;;;;;9.52;100.00;97884.47;10457653;28;20037;-88
2024/01/02 21:15:28;;;;;;;15.43;8.85;;;;;;;9.33;100.00;97893.81;10457236;28;20043;-84
2024/01/02 21:20:29;;;;;;;12.48;9.60;;;;;;;9.16;100.00;97880.03;10422911;28;20033;-88
2024/01/02 21:25:29;;;;;;;18.15;11.70;;;;;;;9.13;100.00;97875.16;10453944;28;20040;-90
2024/01/02 21:30:30;;;;;;;10.82;9.90;;;;;;;9.06;100.00;97857.22;10429936;28;20044;-87
2024/01/02 21:35:31;;;;;;;15.82;12.38;;;;;;;8.99;100.00;97864.31;10438162;28;20667;-83
2024/01/02 21:40:34;;;;;;;15.20;12.23;;;;;;;9.03;100.00;97863.38;10422530;28;20069;-83
2024/01/02 21:45:34;;;;;;;17.67;12.07;;;;;;;8.95;100.00;97852.34;10456793;28;20041;-84
2024/01/02 21:50:44;;;;;;;15.38;13.52;;;;;;;8.62;100.00;97795.09;10454786;28;20041;-86
2024/01/02 21:55:48;;;;;;;16.35;11.68;;;;;;;8.83;100.00;97834.56;10470989;28;20043;-83
2024/01/02 22:01:04;;;;;;;12.27;11.15;;;;;;;8.81;100.00;97847.78;10431412;28;20067;-85
2024/01/02 22:06:06;;;;;;;17.35;12.98;;;;;;;8.74;100.00;97866.63;10437737;28;20052;-87
2024/01/02 22:11:31;;;;;;;11.55;10.57;;;;;;;8.55;100.00;97836.69;10438367;28;20045;-85
2024/01/02 22:16:31;;;;;;;14.60;10.25;;;;;;;8.63;100.00;97866.09;10453557;28;20061;-85
2024/01/02 22:21:37;;;;;;;13.98;12.63;;;;;;;8.57;100.00;97850.09;10455450;28;20056;-82
2024/01/02 22:26:39;;;;;;;18.30;7.20;;;;;;;8.54;100.00;97853.47;10449755;28;20079;-82
2024/01/02 22:31:39;;;;;;;9.43;7.13;;;;;;;8.60;100.00;97839.31;10406023;28;20044;-80
2024/01/02 22:36:41;;;;;;;9.98;7.65;;;;;;;8.55;100.00;97836.69;10437532;28;20041;-84
2024/01/02 22:41:41;;;;;;;11.13;8.15;;;;;;;8.23;100.00;97810.41;10445674;28;20125;-87
2024/01/02 22:46:42;;;;;;;14.68;8.88;;;;;;;8.49;100.00;97870.84;10437210;28;20041;-89
2024/01/02 22:51:43;;;;;;;11.40;9.68;;;;;;;8.41;100.00;97863.38;10442996;28;20056;-86
2024/01/02 22:56:43;;;;;;;9.73;9.13;;;;;;;8.32;100.00;97821.41;10442408;28;20501;-79
2024/01/02 23:01:44;;;;;;;17.02;14.43;;;;;;;8.33;100.00;97850.41;10462229;28;20045;-78
2024/01/02 23:06:45;;;;;;;19.13;15.27;;;;;;;8.19;100.00;97823.09;10461350;28;20061;-81
2024/01/02 23:11:46;;;;;;;14.10;13.10;;;;;;;8.10;100.00;97798.38;10421875;28;20068;-84
2024/01/02 23:16:46;;;;;;;15.05;13.57;;;;;;;7.95;100.00;97815.22;10423261;28;20040;-79